createdAt,value
2022-09-06T00:00:24.534Z,3.03
2022-09-06T00:02:53.104Z,2.87
2022-09-06T00:05:20.286Z,2.73
2022-09-06T00:07:47.527Z,3.00
2022-09-06T00:10:14.671Z,2.93
2022-09-06T00:12:41.821Z,2.90
2022-09-06T00:15:09.368Z,2.67
2022-09-06T00:17:36.842Z,3.50
2022-09-06T00:20:06.196Z,3.30
2022-09-06T00:22:33.333Z,2.60
2022-09-06T00:25:00.542Z,2.80
2022-09-06T00:27:27.706Z,2.80
2022-09-06T00:29:54.974Z,3.60
2022-09-06T00:32:22.127Z,3.27
2022-09-06T00:34:49.278Z,3.10
2022-09-06T00:37:17.766Z,2.70
2022-09-06T00:39:44.955Z,2.77
2022-09-06T00:42:12.849Z,3.13
2022-09-06T00:44:40.002Z,3.07
2022-09-06T00:47:08.235Z,4.00
2022-09-06T00:49:37.249Z,3.30
2022-09-06T00:52:06.836Z,3.13
2022-09-06T00:54:35.324Z,4.10
2022-09-06T00:57:02.614Z,3.33
2022-09-06T00:59:30.588Z,4.13
2022-09-06T01:01:57.827Z,3.27
2022-09-06T01:04:25.872Z,4.03
2022-09-06T01:06:57.981Z,4.13
2022-09-06T01:09:31.164Z,3.67
2022-09-06T01:12:04.630Z,3.80
2022-09-06T01:14:37.712Z,3.60
2022-09-06T01:17:09.867Z,3.40
2022-09-06T01:19:54.947Z,4.00
2022-09-06T01:22:29.818Z,4.50
2022-09-06T01:25:01.479Z,4.47
2022-09-06T01:27:48.772Z,4.07
2022-09-06T01:30:18.225Z,4.57
2022-09-06T01:32:51.707Z,4.73
2022-09-06T01:35:20.957Z,4.87
2022-09-06T01:37:48.105Z,5.10
2022-09-06T01:40:15.316Z,4.27
2022-09-06T01:42:44.881Z,4.27
2022-09-06T01:45:15.402Z,5.43
2022-09-06T01:47:46.686Z,5.03
2022-09-06T01:50:23.206Z,4.47
2022-09-06T01:52:55.048Z,4.50
2022-09-06T01:55:24.631Z,6.03
2022-09-06T01:57:57.929Z,5.57
2022-09-06T02:00:25.330Z,5.50
2022-09-06T02:03:01.002Z,6.23
2022-09-06T02:05:30.554Z,5.53
2022-09-06T02:07:59.692Z,6.73
2022-09-06T02:10:29.574Z,6.27
2022-09-06T02:13:00.237Z,6.17
2022-09-06T02:15:29.655Z,6.93
2022-09-06T02:17:59.224Z,6.17
2022-09-06T02:20:28.207Z,7.00
2022-09-06T02:22:56.754Z,6.60
2022-09-06T02:25:27.170Z,6.63
2022-09-06T02:27:54.623Z,7.00
2022-09-06T02:30:23.140Z,7.33
2022-09-06T02:32:54.237Z,6.63
2022-09-06T02:35:21.457Z,7.20
2022-09-06T02:37:48.690Z,6.23
2022-09-06T02:40:15.933Z,6.67
2022-09-06T02:42:43.058Z,6.70
2022-09-06T02:45:10.553Z,7.00
2022-09-06T02:47:39.019Z,6.97
2022-09-06T02:50:06.509Z,6.80
2022-09-06T02:52:33.646Z,6.17
2022-09-06T02:55:00.796Z,5.50
2022-09-06T02:57:27.926Z,6.27
2022-09-06T02:59:55.070Z,6.10
2022-09-06T03:02:22.261Z,6.60
2022-09-06T03:04:50.733Z,5.80
2022-09-06T03:07:17.922Z,7.10
2022-09-06T03:09:45.040Z,6.50
2022-09-06T03:12:12.206Z,7.37
2022-09-06T03:14:39.323Z,5.73
2022-09-06T03:17:06.457Z,5.80
2022-09-06T03:19:33.570Z,7.40
2022-09-06T03:22:02.058Z,5.90
2022-09-06T03:24:29.218Z,5.70
2022-09-06T03:26:56.337Z,6.30
2022-09-06T03:29:23.508Z,5.77
2022-09-06T03:31:50.670Z,5.97
2022-09-06T03:34:17.791Z,5.60
2022-09-06T03:36:44.938Z,5.80
2022-09-06T03:39:13.394Z,5.87
2022-09-06T03:41:40.556Z,5.90
2022-09-06T03:44:07.711Z,6.17
2022-09-06T03:46:34.842Z,7.43
2022-09-06T03:49:02.058Z,7.70
2022-09-06T03:51:29.203Z,7.10
2022-09-06T03:53:56.366Z,7.23
2022-09-06T03:56:24.877Z,7.57
2022-09-06T03:58:52.021Z,8.67
2022-09-06T04:01:19.210Z,7.70
2022-09-06T04:03:46.392Z,8.97
2022-09-06T04:06:13.500Z,9.23
2022-09-06T04:08:40.702Z,8.43
2022-09-06T04:11:07.860Z,8.50
2022-09-06T04:13:36.422Z,9.10
2022-09-06T04:16:03.881Z,9.70
2022-09-06T04:18:31.157Z,9.20
2022-09-06T04:20:59.353Z,9.07
2022-09-06T04:23:27.525Z,9.37
2022-09-06T04:25:55.468Z,8.90
2022-09-06T04:28:22.609Z,9.70
2022-09-06T04:30:53.995Z,9.60
2022-09-06T04:33:21.335Z,10.50
2022-09-06T04:35:49.186Z,8.70
2022-09-06T04:38:16.472Z,11.47
2022-09-06T04:40:43.575Z,10.80
2022-09-06T04:43:10.714Z,11.70
2022-09-06T04:45:37.950Z,9.97
2022-09-06T04:48:06.446Z,9.73
2022-09-06T04:50:33.598Z,9.57
2022-09-06T04:53:07.012Z,9.90
2022-09-06T04:55:34.594Z,11.10
2022-09-06T04:58:02.176Z,9.13
2022-09-06T05:00:30.019Z,9.90
2022-09-06T05:02:57.117Z,10.00
2022-09-06T05:05:25.735Z,10.57
2022-09-06T05:07:53.192Z,9.87
2022-09-06T05:10:20.645Z,8.80
2022-09-06T05:12:48.644Z,9.60
2022-09-06T05:15:15.946Z,8.90
2022-09-06T05:17:43.117Z,9.43
2022-09-06T05:20:10.981Z,8.53
2022-09-06T05:22:39.816Z,8.53
2022-09-06T05:25:07.208Z,9.30
2022-09-06T05:27:34.389Z,8.03
2022-09-06T05:30:01.547Z,6.97
2022-09-06T05:32:28.644Z,6.93
2022-09-06T05:34:55.794Z,7.93
2022-09-06T05:37:23.134Z,7.47
2022-09-06T05:39:51.672Z,7.73
2022-09-06T05:42:19.474Z,7.60
2022-09-06T05:44:46.744Z,6.67
2022-09-06T05:47:13.864Z,6.10
2022-09-06T05:49:41.103Z,6.30
2022-09-06T05:52:08.403Z,6.87
2022-09-06T05:54:35.564Z,5.77
2022-09-06T05:57:04.185Z,6.67
2022-09-06T05:59:31.373Z,6.03
2022-09-06T06:01:58.506Z,7.00
2022-09-06T06:04:25.706Z,6.20
2022-09-06T06:06:52.831Z,6.77
2022-09-06T06:09:19.971Z,5.73
2022-09-06T06:11:47.106Z,7.03
2022-09-06T06:14:15.567Z,7.53
2022-09-06T06:16:42.767Z,7.30
2022-09-06T06:19:09.963Z,7.10
2022-09-06T06:21:37.118Z,7.57
2022-09-06T06:24:05.070Z,8.30
2022-09-06T06:26:33.316Z,7.83
2022-09-06T06:29:00.626Z,8.00
2022-09-06T06:31:29.297Z,7.70
2022-09-06T06:33:56.542Z,6.83
2022-09-06T06:36:24.422Z,8.00
2022-09-06T06:38:52.642Z,7.27
2022-09-06T06:41:20.381Z,8.87
2022-09-06T06:43:47.554Z,8.10
2022-09-06T06:46:15.595Z,7.47
2022-09-06T06:48:45.793Z,7.83
2022-09-06T06:51:13.662Z,5.80
2022-09-06T06:53:41.044Z,6.70
2022-09-06T06:56:15.103Z,6.37
2022-09-06T06:58:42.281Z,6.20
2022-09-06T07:01:09.531Z,5.50
2022-09-06T07:03:36.810Z,5.00
2022-09-06T07:06:13.210Z,5.60
2022-09-06T07:08:41.011Z,4.87
2022-09-06T07:11:09.271Z,4.63
2022-09-06T07:13:36.616Z,5.70
2022-09-06T07:16:07.235Z,4.80
2022-09-06T07:18:34.471Z,5.63
2022-09-06T07:24:05.910Z,4.53
2022-09-06T07:26:34.242Z,5.30
2022-09-06T07:29:02.256Z,4.90
2022-09-06T07:34:16.938Z,5.00
2022-09-06T07:36:44.109Z,4.67
2022-09-06T07:39:12.644Z,4.90
2022-09-06T07:41:39.793Z,4.00
2022-09-06T07:44:06.949Z,4.90
2022-09-06T07:46:34.140Z,4.97
2022-09-06T07:49:01.302Z,4.17
2022-09-06T07:51:28.454Z,4.03
2022-09-06T07:54:07.380Z,5.40
2022-09-06T07:56:44.136Z,4.60
2022-09-06T07:59:11.277Z,4.90
2022-09-06T08:01:39.057Z,5.47
2022-09-06T08:04:07.145Z,3.63
2022-09-06T08:09:21.975Z,2.97
2022-09-06T08:11:50.461Z,3.17
2022-09-06T08:14:17.616Z,2.57
2022-09-06T08:16:44.841Z,3.00
2022-09-06T08:19:12.024Z,2.93
2022-09-06T08:21:39.519Z,2.83
2022-09-06T08:24:07.618Z,3.67
2022-09-06T08:26:35.683Z,3.15
2022-09-06T08:29:04.954Z,3.33
2022-09-06T08:31:33.448Z,3.20
2022-09-06T08:34:01.379Z,2.65
2022-09-06T08:36:28.873Z,2.70
2022-09-06T08:38:56.073Z,2.85
2022-09-06T08:41:27.209Z,2.05
2022-09-06T08:46:49.431Z,2.65
2022-09-06T08:49:16.616Z,1.95
2022-09-06T08:51:50.735Z,1.70
2022-09-06T08:54:21.933Z,1.67
2022-09-06T08:56:58.135Z,1.80
2022-09-06T08:59:25.291Z,1.67
2022-09-06T09:01:59.652Z,2.22
2022-09-06T09:04:28.383Z,1.92
2022-09-06T09:06:59.295Z,2.08
2022-09-06T09:09:28.297Z,1.75
2022-09-06T09:11:55.413Z,1.80
2022-09-06T09:14:24.910Z,2.17
2022-09-06T09:16:52.135Z,2.05
2022-09-06T09:19:20.632Z,1.80
2022-09-06T09:21:47.755Z,1.83
2022-09-06T09:24:15.569Z,2.03
2022-09-06T09:26:47.920Z,1.45
2022-09-06T09:29:15.376Z,2.08
2022-09-06T09:31:43.479Z,1.80
2022-09-06T09:34:15.111Z,1.70
2022-09-06T09:39:35.054Z,2.10
2022-09-06T09:42:02.447Z,1.42
2022-09-06T09:44:29.770Z,1.77
2022-09-06T09:46:56.938Z,1.80
2022-09-06T09:49:29.303Z,1.70
2022-09-06T09:52:07.111Z,1.60
2022-09-06T09:54:36.707Z,1.52
2022-09-06T09:57:11.586Z,2.22
2022-09-06T09:59:41.045Z,1.92
2022-09-06T10:02:17.310Z,1.58
2022-09-06T10:04:46.094Z,2.10
2022-09-06T10:07:15.671Z,1.73
2022-09-06T10:09:43.469Z,2.22
2022-09-06T10:12:16.167Z,1.88
2022-09-06T10:14:44.496Z,1.60
2022-09-06T10:17:18.678Z,1.58
2022-09-06T10:19:45.924Z,1.50
2022-09-06T10:22:20.715Z,1.60
2022-09-06T10:24:53.857Z,1.60
2022-09-06T10:27:24.357Z,1.67
2022-09-06T10:29:55.354Z,1.70
2022-09-06T10:32:31.916Z,2.13
2022-09-06T10:35:03.404Z,1.60
2022-09-06T10:37:38.775Z,1.30
2022-09-06T10:40:06.532Z,1.80
2022-09-06T10:42:39.762Z,1.80
2022-09-06T10:45:15.966Z,1.75
2022-09-06T10:47:50.624Z,1.67
2022-09-06T10:50:17.823Z,1.52
2022-09-06T10:52:48.189Z,2.40
2022-09-06T10:55:17.171Z,1.30
2022-09-06T11:00:33.982Z,1.80
2022-09-06T11:06:03.005Z,1.88
2022-09-06T11:08:50.369Z,1.85
2022-09-06T11:11:21.381Z,1.70
2022-09-06T11:13:48.615Z,1.92
2022-09-06T11:16:19.508Z,1.70
2022-09-06T11:18:48.867Z,1.58
2022-09-06T11:21:26.977Z,1.50
2022-09-06T11:23:57.897Z,1.70
2022-09-06T11:26:31.192Z,2.08
2022-09-06T11:28:59.434Z,2.80
2022-09-06T11:34:20.630Z,2.03
2022-09-06T11:36:50.179Z,2.28
2022-09-06T11:42:33.052Z,2.10
2022-09-06T11:45:15.091Z,2.08
2022-09-06T11:47:43.422Z,2.13
2022-09-06T11:50:34.651Z,2.15
2022-09-06T11:53:15.271Z,2.00
2022-09-06T11:55:44.119Z,2.20
2022-09-06T11:58:19.831Z,2.33
2022-09-06T12:01:07.000Z,2.20
2022-09-06T12:04:09.238Z,2.60
2022-09-06T12:06:38.936Z,2.40
2022-09-06T12:09:20.947Z,2.77
2022-09-06T12:11:49.439Z,3.00
2022-09-06T12:14:28.648Z,2.30
2022-09-06T12:17:25.909Z,2.97
2022-09-06T12:19:54.428Z,3.50
2022-09-06T12:22:36.420Z,2.53
2022-09-06T12:25:04.234Z,2.13
2022-09-06T12:27:33.967Z,2.70
2022-09-06T12:30:02.259Z,3.10
2022-09-06T12:32:33.719Z,2.53
2022-09-06T12:37:54.925Z,2.53
2022-09-06T12:40:22.613Z,2.10
2022-09-06T12:42:51.393Z,2.20
2022-09-06T12:45:18.913Z,2.50
2022-09-06T12:47:46.079Z,2.17
2022-09-06T12:50:18.005Z,2.57
2022-09-06T12:52:46.355Z,2.20
2022-09-06T12:55:22.172Z,2.83
2022-09-06T12:57:51.825Z,2.23
2022-09-06T13:00:19.473Z,2.40
2022-09-06T13:02:52.454Z,2.20
2022-09-06T13:05:19.789Z,2.00
2022-09-06T13:07:49.847Z,2.03
2022-09-06T13:10:18.549Z,2.00
2022-09-06T13:12:47.003Z,2.20
2022-09-06T13:15:18.648Z,2.00
2022-09-06T13:17:46.074Z,1.47
2022-09-06T13:20:13.839Z,1.60
2022-09-06T13:22:42.467Z,1.80
2022-09-06T13:25:20.563Z,1.80
2022-09-06T13:27:48.808Z,1.57
2022-09-06T13:30:37.400Z,1.53
2022-09-06T13:33:05.066Z,1.60
2022-09-06T13:35:33.477Z,1.90
2022-09-06T13:38:19.157Z,1.80
2022-09-06T13:41:10.631Z,1.70
2022-09-06T13:43:42.456Z,1.90
2022-09-06T13:46:11.416Z,2.13
2022-09-06T13:48:38.930Z,2.00
2022-09-06T13:51:08.404Z,1.60
2022-09-06T13:53:35.790Z,1.80
2022-09-06T13:56:03.155Z,2.10
2022-09-06T13:58:30.506Z,1.50
2022-09-06T14:00:58.924Z,2.77
2022-09-06T14:03:29.108Z,1.47
2022-09-06T14:05:56.353Z,1.87
2022-09-06T14:08:23.732Z,1.63
2022-09-06T14:10:50.922Z,1.40
2022-09-06T14:13:18.525Z,1.40
2022-09-06T14:15:46.120Z,1.67
2022-09-06T14:18:14.595Z,1.50
2022-09-06T14:20:43.562Z,1.80
2022-09-06T14:23:10.684Z,1.20
2022-09-06T14:25:38.342Z,1.80
2022-09-06T14:28:05.522Z,1.37
2022-09-06T14:30:32.677Z,1.23
2022-09-06T14:32:59.892Z,1.57
2022-09-06T14:35:27.085Z,1.50
2022-09-06T14:37:55.589Z,1.27
2022-09-06T14:40:22.720Z,1.30
2022-09-06T14:42:50.658Z,1.30
2022-09-06T14:45:18.106Z,1.17
2022-09-06T14:47:45.238Z,1.20
2022-09-06T14:50:12.426Z,1.30
2022-09-06T14:52:39.540Z,1.30
2022-09-06T14:55:08.529Z,1.30
2022-09-06T14:57:35.655Z,1.90
2022-09-06T15:00:03.077Z,1.77
2022-09-06T15:02:30.267Z,1.70
2022-09-06T15:04:57.493Z,1.57
2022-09-06T15:07:24.613Z,1.57
2022-09-06T15:09:51.745Z,2.30
2022-09-06T15:12:20.225Z,1.50
2022-09-06T15:14:47.446Z,1.60
2022-09-06T15:17:14.589Z,1.57
2022-09-06T15:19:41.728Z,1.40
2022-09-06T15:22:08.879Z,1.63
2022-09-06T15:24:36.070Z,2.23
2022-09-06T15:27:03.280Z,2.00
2022-09-06T15:29:31.768Z,1.60
2022-09-06T15:31:58.882Z,1.87
2022-09-06T15:34:26.616Z,1.63
2022-09-06T15:36:53.829Z,1.83
2022-09-06T15:39:20.970Z,1.70
2022-09-06T15:41:50.251Z,2.10
2022-09-06T15:44:18.120Z,1.50
2022-09-06T15:46:47.938Z,1.60
2022-09-06T15:49:16.050Z,1.47
2022-09-06T15:51:43.431Z,1.27
2022-09-06T15:54:11.364Z,1.77
2022-09-06T15:56:38.486Z,1.30
2022-09-06T15:59:05.726Z,1.57
2022-09-06T16:01:32.995Z,1.50
2022-09-06T16:04:01.943Z,1.30
2022-09-06T16:06:29.383Z,1.27
2022-09-06T16:08:57.770Z,1.43
2022-09-06T16:11:25.104Z,1.20
2022-09-06T16:13:52.272Z,1.83
2022-09-06T16:16:19.815Z,1.80
2022-09-06T16:18:47.030Z,1.30
2022-09-06T16:21:18.000Z,1.20
2022-09-06T16:23:48.631Z,1.20
2022-09-06T16:26:21.140Z,1.47
2022-09-06T16:28:49.252Z,1.50
2022-09-06T16:31:16.481Z,1.30
2022-09-06T16:33:43.744Z,1.10
2022-09-06T16:36:10.904Z,1.30
2022-09-06T16:38:39.997Z,1.10
2022-09-06T16:41:10.841Z,1.47
2022-09-06T16:43:38.009Z,1.77
2022-09-06T16:46:05.622Z,1.50
2022-09-06T16:48:32.910Z,1.30
2022-09-06T16:51:08.489Z,1.10
2022-09-06T16:53:35.610Z,1.33
2022-09-06T16:56:04.257Z,1.60
2022-09-06T16:58:31.577Z,2.00
2022-09-06T17:00:58.768Z,1.40
2022-09-06T17:03:26.005Z,1.47
2022-09-06T17:05:53.356Z,1.40
2022-09-06T17:08:20.688Z,1.87
2022-09-06T17:10:47.815Z,1.60
2022-09-06T17:13:16.326Z,1.40
2022-09-06T17:15:43.483Z,1.70
2022-09-06T17:18:10.603Z,1.30
2022-09-06T17:20:37.751Z,1.40
2022-09-06T17:23:04.912Z,1.50
2022-09-06T17:25:32.061Z,1.50
2022-09-06T17:27:59.228Z,2.03
2022-09-06T17:30:27.789Z,3.80
2022-09-06T17:32:55.000Z,1.97
2022-09-06T17:35:22.105Z,2.03
2022-09-06T17:37:49.223Z,1.40
2022-09-06T17:40:16.441Z,1.40
2022-09-06T17:42:43.571Z,1.70
2022-09-06T17:45:10.782Z,1.50
2022-09-06T17:47:39.322Z,2.00
2022-09-06T17:50:06.824Z,2.87
2022-09-06T17:52:33.977Z,1.47
2022-09-06T17:55:01.147Z,1.53
2022-09-06T17:57:28.284Z,1.90
2022-09-06T17:59:55.406Z,1.40
2022-09-06T18:02:22.633Z,1.50
2022-09-06T18:04:51.190Z,1.30
2022-09-06T18:07:18.375Z,1.80
2022-09-06T18:09:45.503Z,1.40
2022-09-06T18:12:12.662Z,1.90
2022-09-06T18:14:39.838Z,1.67
2022-09-06T18:17:06.996Z,2.00
2022-09-06T18:19:34.140Z,1.80
2022-09-06T18:22:02.628Z,1.80
2022-09-06T18:24:29.745Z,2.10
2022-09-06T18:26:56.881Z,1.60
2022-09-06T18:29:24.007Z,1.90
2022-09-06T18:31:51.189Z,1.90
2022-09-06T18:34:18.521Z,1.93
2022-09-06T18:36:45.773Z,2.03
2022-09-06T18:39:14.350Z,1.70
2022-09-06T18:41:41.470Z,1.97
2022-09-06T18:44:08.615Z,1.90
2022-09-06T18:46:36.571Z,2.10
2022-09-06T18:49:03.948Z,1.70
2022-09-06T18:51:31.112Z,1.87
2022-09-06T18:53:58.712Z,2.20
2022-09-06T18:56:27.518Z,1.80
2022-09-06T18:58:55.342Z,2.07
2022-09-06T19:01:22.643Z,2.50
2022-09-06T19:03:49.869Z,1.90
2022-09-06T19:06:18.753Z,1.87
2022-09-06T19:08:46.469Z,2.17
2022-09-06T19:11:14.484Z,2.20
2022-09-06T19:13:43.707Z,1.90
2022-09-06T19:16:12.033Z,2.10
2022-09-06T19:18:39.863Z,2.17
2022-09-06T19:21:08.003Z,2.40
2022-09-06T19:23:35.835Z,2.40
2022-09-06T19:26:04.657Z,2.47
2022-09-06T19:28:32.143Z,2.70
2022-09-06T19:31:05.496Z,2.30
2022-09-06T19:33:36.034Z,2.10
2022-09-06T19:36:11.610Z,2.80
2022-09-06T19:38:59.561Z,2.70
2022-09-06T19:41:27.476Z,2.90
2022-09-06T19:43:55.327Z,2.30
2022-09-06T19:46:24.096Z,3.03
2022-09-06T19:48:52.039Z,2.70
2022-09-06T19:51:19.648Z,1.90
2022-09-06T19:53:48.507Z,2.27
2022-09-06T19:56:16.254Z,2.33
2022-09-06T19:58:44.047Z,2.50
2022-09-06T20:01:11.813Z,2.30
2022-09-06T20:03:40.389Z,2.30
2022-09-06T20:06:07.908Z,2.07
2022-09-06T20:08:35.368Z,2.50
2022-09-06T20:11:03.214Z,1.93
2022-09-06T20:13:30.756Z,1.93
2022-09-06T20:15:58.177Z,2.20
2022-09-06T20:18:25.497Z,2.20
2022-09-06T20:20:55.349Z,2.30
2022-09-06T20:23:22.907Z,2.40
2022-09-06T20:25:57.909Z,2.40
2022-09-06T20:28:25.218Z,2.40
2022-09-06T20:30:52.445Z,2.23
2022-09-06T20:33:19.637Z,1.80
2022-09-06T20:35:55.108Z,2.40
2022-09-06T20:38:22.277Z,2.50
2022-09-06T20:40:57.136Z,2.77
2022-09-06T20:43:24.284Z,2.30
2022-09-06T20:45:51.436Z,2.47
2022-09-06T20:48:18.565Z,2.27
2022-09-06T20:50:45.685Z,2.13
2022-09-06T20:53:14.156Z,1.83
2022-09-06T20:55:41.280Z,1.90
2022-09-06T20:58:08.406Z,2.20
2022-09-06T21:00:39.728Z,2.03
2022-09-06T21:03:06.903Z,1.80
2022-09-06T21:05:34.036Z,1.73
2022-09-06T21:08:01.176Z,2.10
2022-09-06T21:10:29.687Z,2.43
2022-09-06T21:12:56.810Z,1.80
2022-09-06T21:15:23.969Z,2.10
2022-09-06T21:17:51.098Z,2.07
2022-09-06T21:20:18.256Z,2.13
2022-09-06T21:22:45.387Z,2.53
2022-09-06T21:25:12.532Z,1.90
2022-09-06T21:27:41.030Z,2.37
2022-09-06T21:30:08.805Z,2.30
2022-09-06T21:32:35.911Z,2.00
2022-09-06T21:35:03.058Z,2.10
2022-09-06T21:37:30.154Z,1.67
2022-09-06T21:39:57.402Z,1.67
2022-09-06T21:42:24.582Z,1.60
2022-09-06T21:44:53.068Z,1.80
2022-09-06T21:47:20.197Z,1.93
2022-09-06T21:49:47.448Z,2.00
2022-09-06T21:52:14.675Z,1.73
2022-09-06T21:54:41.778Z,2.10
2022-09-06T21:57:08.893Z,1.80
2022-09-06T21:59:36.028Z,1.90
2022-09-06T22:02:04.553Z,1.90
2022-09-06T22:04:31.726Z,1.60
2022-09-06T22:06:58.866Z,1.93
2022-09-06T22:09:26.093Z,1.93
2022-09-06T22:11:53.225Z,1.60
2022-09-06T22:14:20.352Z,2.10
2022-09-06T22:16:47.526Z,1.93
2022-09-06T22:19:16.055Z,1.87
2022-09-06T22:21:43.202Z,1.80
2022-09-06T22:24:11.523Z,1.67
2022-09-06T22:26:39.416Z,2.10
2022-09-06T22:29:08.947Z,1.67
2022-09-06T22:31:36.483Z,2.20
2022-09-06T22:34:03.846Z,2.93
2022-09-06T22:36:32.545Z,2.30
2022-09-06T22:38:59.709Z,1.70
2022-09-06T22:41:27.526Z,2.00
2022-09-06T22:43:54.993Z,1.60
2022-09-06T22:46:22.272Z,1.77
2022-09-06T22:48:49.425Z,1.73
2022-09-06T22:51:16.715Z,1.60
2022-09-06T22:53:45.189Z,2.57
2022-09-06T22:56:12.343Z,1.60
2022-09-06T22:58:39.466Z,1.67
2022-09-06T23:01:08.120Z,1.70
2022-09-06T23:03:35.418Z,1.50
2022-09-06T23:06:02.677Z,1.60
2022-09-06T23:08:29.959Z,1.33
2022-09-06T23:10:58.575Z,1.73
2022-09-06T23:13:25.690Z,1.53
2022-09-06T23:15:52.874Z,1.77
2022-09-06T23:18:20.042Z,2.80
2022-09-06T23:20:47.150Z,3.17
2022-09-06T23:23:14.256Z,2.10
2022-09-06T23:25:41.367Z,2.50
2022-09-06T23:28:09.847Z,1.43
2022-09-06T23:30:37.489Z,1.97
2022-09-06T23:33:04.896Z,2.30
2022-09-06T23:35:32.061Z,2.30
2022-09-06T23:37:59.246Z,1.90
2022-09-06T23:40:26.374Z,1.70
2022-09-06T23:42:53.524Z,1.80
2022-09-06T23:45:22.038Z,1.63
2022-09-06T23:47:49.196Z,1.90
2022-09-06T23:50:16.344Z,2.10
2022-09-06T23:52:43.494Z,1.73
2022-09-06T23:55:10.783Z,1.70
2022-09-06T23:57:37.930Z,1.30
